sensor_id;sensor_type;location;lat;lon;timestamp;pressure;altitude;pressure_sealevel;temperature;humidity
79540;BME280;68991;52.122;5.406;2023-08-30T00:01:02;101001.25;;;20.32;61.63
79540;BME280;68991;52.122;5.406;2023-08-30T00:03:28;100996.78;;;20.31;61.54
79540;BME280;68991;52.122;5.406;2023-08-30T00:05:55;100994.06;;;20.31;61.65
79540;BME280;68991;52.122;5.406;2023-08-30T00:08:21;100990.47;;;20.30;61.56
79540;BME280;68991;52.122;5.406;2023-08-30T00:10:48;100986.03;;;20.29;61.70
79540;BME280;68991;52.122;5.406;2023-08-30T00:13:15;100977.84;;;20.29;61.80
79540;BME280;68991;52.122;5.406;2023-08-30T00:15:42;100976.09;;;20.28;61.72
79540;BME280;68991;52.122;5.406;2023-08-30T00:18:08;100972.50;;;20.28;61.86
79540;BME280;68991;52.122;5.406;2023-08-30T00:20:36;100968.00;;;20.27;61.76
79540;BME280;68991;52.122;5.406;2023-08-30T00:23:02;100969.75;;;20.28;61.62
79540;BME280;68991;52.122;5.406;2023-08-30T00:25:29;100965.25;;;20.27;61.71
79540;BME280;68991;52.122;5.406;2023-08-30T00:27:56;100971.75;;;20.26;61.94
79540;BME280;68991;52.122;5.406;2023-08-30T00:30:22;100969.13;;;20.24;61.51
79540;BME280;68991;52.122;5.406;2023-08-30T00:32:49;100971.88;;;20.24;61.53
79540;BME280;68991;52.122;5.406;2023-08-30T00:35:15;100968.25;;;20.24;61.83
79540;BME280;68991;52.122;5.406;2023-08-30T00:37:42;100964.66;;;20.23;61.74
79540;BME280;68991;52.122;5.406;2023-08-30T00:40:08;100963.81;;;20.23;61.66
79540;BME280;68991;52.122;5.406;2023-08-30T00:42:35;100951.16;;;20.22;61.61
79540;BME280;68991;52.122;5.406;2023-08-30T00:45:02;100957.50;;;20.22;61.60
79540;BME280;68991;52.122;5.406;2023-08-30T00:47:29;100953.03;;;20.21;61.69
79540;BME280;68991;52.122;5.406;2023-08-30T00:49:56;100948.56;;;20.20;61.86
79540;BME280;68991;52.122;5.406;2023-08-30T00:52:22;100947.69;;;20.20;61.34
79540;BME280;68991;52.122;5.406;2023-08-30T00:54:49;100947.69;;;20.20;61.99
79540;BME280;68991;52.122;5.406;2023-08-30T00:57:16;100939.66;;;20.18;61.65
79540;BME280;68991;52.122;5.406;2023-08-30T00:59:42;100945.13;;;20.18;61.78
79540;BME280;68991;52.122;5.406;2023-08-30T01:02:09;100944.25;;;20.18;61.85
79540;BME280;68991;52.122;5.406;2023-08-30T01:04:35;100943.38;;;20.17;61.91
79540;BME280;68991;52.122;5.406;2023-08-30T01:07:02;100937.06;;;20.17;61.86
79540;BME280;68991;52.122;5.406;2023-08-30T01:09:28;100944.38;;;20.16;61.73
79540;BME280;68991;52.122;5.406;2023-08-30T01:12:09;100943.50;;;20.16;61.65
79540;BME280;68991;52.122;5.406;2023-08-30T01:14:52;100940.78;;;20.16;61.95
79540;BME280;68991;52.122;5.406;2023-08-30T01:17:23;100938.03;;;20.16;61.62
79540;BME280;68991;52.122;5.406;2023-08-30T01:20:05;100944.53;;;20.15;61.54
79540;BME280;68991;52.122;5.406;2023-08-30T01:22:55;100944.53;;;20.15;61.67
79540;BME280;68991;52.122;5.406;2023-08-30T01:25:41;100949.13;;;20.14;61.55
79540;BME280;68991;52.122;5.406;2023-08-30T01:28:10;100945.50;;;20.14;61.93
79540;BME280;68991;52.122;5.406;2023-08-30T01:30:39;100943.78;;;20.13;61.77
79540;BME280;68991;52.122;5.406;2023-08-30T01:33:07;100936.47;;;20.13;61.74
79540;BME280;68991;52.122;5.406;2023-08-30T01:35:35;100948.25;;;20.14;61.58
79540;BME280;68991;52.122;5.406;2023-08-30T01:38:04;100934.72;;;20.12;61.67
79540;BME280;68991;52.122;5.406;2023-08-30T01:40:35;100931.16;;;20.12;61.73
79540;BME280;68991;52.122;5.406;2023-08-30T01:43:04;100930.13;;;20.13;61.63
79540;BME280;68991;52.122;5.406;2023-08-30T01:45:33;100929.41;;;20.11;61.77
79540;BME280;68991;52.122;5.406;2023-08-30T01:48:02;100926.69;;;20.11;61.67
79540;BME280;68991;52.122;5.406;2023-08-30T01:50:30;100925.81;;;20.10;61.66
79540;BME280;68991;52.122;5.406;2023-08-30T01:52:57;100921.22;;;20.11;61.90
79540;BME280;68991;52.122;5.406;2023-08-30T01:55:24;100913.03;;;20.11;61.56
79540;BME280;68991;52.122;5.406;2023-08-30T01:57:52;100913.16;;;20.09;61.46
79540;BME280;68991;52.122;5.406;2023-08-30T02:00:19;100909.56;;;20.09;61.51
79540;BME280;68991;52.122;5.406;2023-08-30T02:02:47;100912.28;;;20.09;61.53
79540;BME280;68991;52.122;5.406;2023-08-30T02:05:14;100909.56;;;20.09;61.71
79540;BME280;68991;52.122;5.406;2023-08-30T02:07:57;100916.03;;;20.08;61.47
79540;BME280;68991;52.122;5.406;2023-08-30T02:10:28;100913.31;;;20.08;61.54
79540;BME280;68991;52.122;5.406;2023-08-30T02:12:59;100912.44;;;20.07;61.40
79540;BME280;68991;52.122;5.406;2023-08-30T02:15:27;100914.31;;;20.07;61.65
79540;BME280;68991;52.122;5.406;2023-08-30T02:17:55;100918.88;;;20.06;61.53
79540;BME280;68991;52.122;5.406;2023-08-30T02:20:22;100909.84;;;20.06;61.68
79540;BME280;68991;52.122;5.406;2023-08-30T02:22:49;100910.69;;;20.06;61.41
79540;BME280;68991;52.122;5.406;2023-08-30T02:25:16;100904.38;;;20.06;61.50
79540;BME280;68991;52.122;5.406;2023-08-30T02:27:42;100903.50;;;20.05;61.43
79540;BME280;68991;52.122;5.406;2023-08-30T02:30:10;100906.22;;;20.05;61.52
79540;BME280;68991;52.122;5.406;2023-08-30T02:32:36;100908.97;;;20.05;61.65
79540;BME280;68991;52.122;5.406;2023-08-30T02:35:03;100899.94;;;20.05;61.52
79540;BME280;68991;52.122;5.406;2023-08-30T02:37:30;100896.34;;;20.04;61.47
79540;BME280;68991;52.122;5.406;2023-08-30T02:39:56;100895.47;;;20.04;61.54
79540;BME280;68991;52.122;5.406;2023-08-30T02:42:23;100886.41;;;20.03;61.38
79540;BME280;68991;52.122;5.406;2023-08-30T02:44:49;100881.94;;;20.02;61.56
79540;BME280;68991;52.122;5.406;2023-08-30T02:47:15;100882.81;;;20.03;61.28
79540;BME280;68991;52.122;5.406;2023-08-30T02:49:42;100893.72;;;20.03;61.47
79540;BME280;68991;52.122;5.406;2023-08-30T02:52:09;100884.56;;;20.04;61.56
79540;BME280;68991;52.122;5.406;2023-08-30T02:54:35;100881.06;;;20.02;61.37
79540;BME280;68991;52.122;5.406;2023-08-30T02:57:02;100881.06;;;20.02;61.69
79540;BME280;68991;52.122;5.406;2023-08-30T02:59:28;100872.88;;;20.02;61.50
79540;BME280;68991;52.122;5.406;2023-08-30T03:01:55;100865.72;;;20.01;61.49
79540;BME280;68991;52.122;5.406;2023-08-30T03:04:21;100856.66;;;20.00;61.33
79540;BME280;68991;52.122;5.406;2023-08-30T03:06:48;100853.94;;;20.00;61.63
79540;BME280;68991;52.122;5.406;2023-08-30T03:09:14;100846.63;;;20.01;61.47
79540;BME280;68991;52.122;5.406;2023-08-30T03:11:41;100855.69;;;20.01;61.67
79540;BME280;68991;52.122;5.406;2023-08-30T03:14:07;100846.63;;;20.01;61.32
79540;BME280;68991;52.122;5.406;2023-08-30T03:16:34;100848.47;;;20.00;61.52
79540;BME280;68991;52.122;5.406;2023-08-30T03:19:02;100855.81;;;20.00;61.30
79540;BME280;68991;52.122;5.406;2023-08-30T03:21:28;100840.41;;;19.99;61.52
79540;BME280;68991;52.122;5.406;2023-08-30T03:23:55;100843.16;;;19.99;61.22
79540;BME280;68991;52.122;5.406;2023-08-30T03:26:21;100845.88;;;19.99;61.22
79540;BME280;68991;52.122;5.406;2023-08-30T03:28:48;100833.25;;;19.98;61.35
79540;BME280;68991;52.122;5.406;2023-08-30T03:31:16;100838.72;;;19.98;61.22
79540;BME280;68991;52.122;5.406;2023-08-30T03:33:43;100826.06;;;19.97;61.11
79540;BME280;68991;52.122;5.406;2023-08-30T03:36:13;100831.53;;;19.97;61.26
79540;BME280;68991;52.122;5.406;2023-08-30T03:38:41;100826.06;;;19.97;61.42
79540;BME280;68991;52.122;5.406;2023-08-30T03:41:08;100827.06;;;19.96;61.25
79540;BME280;68991;52.122;5.406;2023-08-30T03:43:35;100821.59;;;19.96;61.17
79540;BME280;68991;52.122;5.406;2023-08-30T03:46:02;100817.13;;;19.95;61.04
79540;BME280;68991;52.122;5.406;2023-08-30T03:48:32;100809.97;;;19.94;61.35
79540;BME280;68991;52.122;5.406;2023-08-30T03:50:58;100807.25;;;19.94;61.15
79540;BME280;68991;52.122;5.406;2023-08-30T03:53:25;100801.91;;;19.92;61.42
79540;BME280;68991;52.122;5.406;2023-08-30T03:55:51;100802.78;;;19.93;61.41
79540;BME280;68991;52.122;5.406;2023-08-30T03:58:19;100802.78;;;19.93;61.41
79540;BME280;68991;52.122;5.406;2023-08-30T04:00:46;100800.16;;;19.91;61.37
79540;BME280;68991;52.122;5.406;2023-08-30T04:03:14;100804.78;;;19.91;61.22
79540;BME280;68991;52.122;5.406;2023-08-30T04:05:42;100797.59;;;19.90;61.42
79540;BME280;68991;52.122;5.406;2023-08-30T04:08:09;100793.00;;;19.90;61.57
79540;BME280;68991;52.122;5.406;2023-08-30T04:10:40;100794.88;;;19.90;61.34
79540;BME280;68991;52.122;5.406;2023-08-30T04:13:07;100781.22;;;19.90;61.59
79540;BME280;68991;52.122;5.406;2023-08-30T04:15:36;100785.81;;;19.89;61.61
79540;BME280;68991;52.122;5.406;2023-08-30T04:18:03;100789.53;;;19.88;61.28
79540;BME280;68991;52.122;5.406;2023-08-30T04:20:31;100789.69;;;19.86;61.23
79540;BME280;68991;52.122;5.406;2023-08-30T04:22:59;100786.09;;;19.86;61.33
79540;BME280;68991;52.122;5.406;2023-08-30T04:25:28;100791.53;;;19.86;61.47
79540;BME280;68991;52.122;5.406;2023-08-30T04:27:56;100797.00;;;19.86;61.51
79540;BME280;68991;52.122;5.406;2023-08-30T04:30:23;100788.94;;;19.84;61.39
79540;BME280;68991;52.122;5.406;2023-08-30T04:32:49;100790.81;;;19.84;61.47
79540;BME280;68991;52.122;5.406;2023-08-30T04:35:16;100785.34;;;19.84;61.24
79540;BME280;68991;52.122;5.406;2023-08-30T04:37:43;100786.38;;;19.83;61.28
79540;BME280;68991;52.122;5.406;2023-08-30T04:40:10;100783.63;;;19.83;61.56
79540;BME280;68991;52.122;5.406;2023-08-30T04:42:37;100787.38;;;19.82;61.41
79540;BME280;68991;52.122;5.406;2023-08-30T04:45:04;100781.91;;;19.82;61.51
79540;BME280;68991;52.122;5.406;2023-08-30T04:47:31;100783.75;;;19.81;61.38
79540;BME280;68991;52.122;5.406;2023-08-30T04:49:59;100776.56;;;19.80;61.62
79540;BME280;68991;52.122;5.406;2023-08-30T04:52:25;100774.72;;;19.81;61.50
79540;BME280;68991;52.122;5.406;2023-08-30T04:54:52;100771.13;;;19.80;61.60
79540;BME280;68991;52.122;5.406;2023-08-30T04:57:18;100773.00;;;19.80;61.53
79540;BME280;68991;52.122;5.406;2023-08-30T04:59:46;100769.41;;;19.79;61.54
79540;BME280;68991;52.122;5.406;2023-08-30T05:02:12;100769.41;;;19.79;61.64
79540;BME280;68991;52.122;5.406;2023-08-30T05:04:39;100767.69;;;19.78;61.51
79540;BME280;68991;52.122;5.406;2023-08-30T05:07:05;100755.91;;;19.78;61.72
79540;BME280;68991;52.122;5.406;2023-08-30T05:09:32;100755.03;;;19.77;61.68
79540;BME280;68991;52.122;5.406;2023-08-30T05:12:00;100750.44;;;19.78;61.48
79540;BME280;68991;52.122;5.406;2023-08-30T05:14:27;100747.88;;;19.76;61.67
79540;BME280;68991;52.122;5.406;2023-08-30T05:16:53;100739.69;;;19.76;61.21
79540;BME280;68991;52.122;5.406;2023-08-30T05:19:20;100739.69;;;19.76;61.46
79540;BME280;68991;52.122;5.406;2023-08-30T05:21:46;100739.81;;;19.75;61.60
79540;BME280;68991;52.122;5.406;2023-08-30T05:24:13;100740.69;;;19.75;61.54
79540;BME280;68991;52.122;5.406;2023-08-30T05:26:39;100733.47;;;19.74;61.64
79540;BME280;68991;52.122;5.406;2023-08-30T05:29:06;100734.34;;;19.75;61.37
79540;BME280;68991;52.122;5.406;2023-08-30T05:31:32;100735.22;;;19.75;61.40
79540;BME280;68991;52.122;5.406;2023-08-30T05:33:59;100739.81;;;19.75;61.23
79540;BME280;68991;52.122;5.406;2023-08-30T05:36:25;100738.94;;;19.74;61.17
79540;BME280;68991;52.122;5.406;2023-08-30T05:38:52;100732.63;;;19.74;61.44
79540;BME280;68991;52.122;5.406;2023-08-30T05:41:18;100738.94;;;19.74;61.18
79540;BME280;68991;52.122;5.406;2023-08-30T05:43:45;100731.75;;;19.73;61.36
79540;BME280;68991;52.122;5.406;2023-08-30T05:46:11;100743.53;;;19.74;61.33
79540;BME280;68991;52.122;5.406;2023-08-30T05:48:41;100746.25;;;19.74;61.33
79540;BME280;68991;52.122;5.406;2023-08-30T05:51:08;100743.53;;;19.74;61.42
79540;BME280;68991;52.122;5.406;2023-08-30T05:53:34;100737.19;;;19.73;61.30
79540;BME280;68991;52.122;5.406;2023-08-30T05:56:01;100733.63;;;19.73;61.29
79540;BME280;68991;52.122;5.406;2023-08-30T05:58:27;100740.97;;;19.72;61.33
79540;BME280;68991;52.122;5.406;2023-08-30T06:00:54;100756.28;;;19.73;61.40
79540;BME280;68991;52.122;5.406;2023-08-30T06:03:20;100753.56;;;19.73;61.34
79540;BME280;68991;52.122;5.406;2023-08-30T06:05:47;100745.38;;;19.73;61.30
79540;BME280;68991;52.122;5.406;2023-08-30T06:08:15;100748.13;;;19.73;61.17
79540;BME280;68991;52.122;5.406;2023-08-30T06:10:41;100756.28;;;19.73;61.14
79540;BME280;68991;52.122;5.406;2023-08-30T06:13:08;100745.38;;;19.73;61.26
79540;BME280;68991;52.122;5.406;2023-08-30T06:15:37;100749.84;;;19.74;61.12
79540;BME280;68991;52.122;5.406;2023-08-30T06:18:05;100743.53;;;19.74;61.38
79540;BME280;68991;52.122;5.406;2023-08-30T06:20:31;100736.22;;;19.74;61.15
79540;BME280;68991;52.122;5.406;2023-08-30T06:22:58;100734.47;;;19.73;61.23
79540;BME280;68991;52.122;5.406;2023-08-30T06:25:25;100720.84;;;19.73;61.26
79540;BME280;68991;52.122;5.406;2023-08-30T06:27:58;100713.69;;;19.72;60.89
79540;BME280;68991;52.122;5.406;2023-08-30T06:30:25;100708.22;;;19.72;61.18
79540;BME280;68991;52.122;5.406;2023-08-30T06:32:52;100709.09;;;19.73;61.23
79540;BME280;68991;52.122;5.406;2023-08-30T06:35:19;100708.22;;;19.72;61.04
79540;BME280;68991;52.122;5.406;2023-08-30T06:37:45;100724.59;;;19.72;61.23
79540;BME280;68991;52.122;5.406;2023-08-30T06:40:12;100721.88;;;19.72;61.35
79540;BME280;68991;52.122;5.406;2023-08-30T06:42:39;100719.13;;;19.72;61.23
79540;BME280;68991;52.122;5.406;2023-08-30T06:45:06;100728.31;;;19.71;61.22
79540;BME280;68991;52.122;5.406;2023-08-30T06:47:32;100732.91;;;19.71;61.23
79540;BME280;68991;52.122;5.406;2023-08-30T06:50:00;100721.97;;;19.71;61.20
79540;BME280;68991;52.122;5.406;2023-08-30T06:52:27;100722.84;;;19.71;61.10
79540;BME280;68991;52.122;5.406;2023-08-30T06:54:53;100716.53;;;19.71;61.14
79540;BME280;68991;52.122;5.406;2023-08-30T06:57:20;100714.78;;;19.70;61.41
79540;BME280;68991;52.122;5.406;2023-08-30T06:59:48;100715.66;;;19.70;61.29
79540;BME280;68991;52.122;5.406;2023-08-30T07:02:14;100710.22;;;19.70;61.30
79540;BME280;68991;52.122;5.406;2023-08-30T07:04:41;100701.16;;;19.70;61.28
79540;BME280;68991;52.122;5.406;2023-08-30T07:07:07;100700.31;;;19.69;61.46
79540;BME280;68991;52.122;5.406;2023-08-30T07:09:34;100692.13;;;19.69;61.52
79540;BME280;68991;52.122;5.406;2023-08-30T07:12:00;100697.59;;;19.69;61.36
79540;BME280;68991;52.122;5.406;2023-08-30T07:14:27;100700.31;;;19.69;61.32
79540;BME280;68991;52.122;5.406;2023-08-30T07:16:53;100697.59;;;19.69;61.72
79540;BME280;68991;52.122;5.406;2023-08-30T07:19:20;100685.81;;;19.69;61.46
79540;BME280;68991;52.122;5.406;2023-08-30T07:21:46;100692.13;;;19.69;61.37
79540;BME280;68991;52.122;5.406;2023-08-30T07:24:13;100689.41;;;19.69;61.46
79540;BME280;68991;52.122;5.406;2023-08-30T07:26:39;100691.97;;;19.71;61.41
79540;BME280;68991;52.122;5.406;2023-08-30T07:29:06;100688.38;;;19.70;61.42
79540;BME280;68991;52.122;5.406;2023-08-30T07:31:33;100680.34;;;19.69;61.56
79540;BME280;68991;52.122;5.406;2023-08-30T07:33:59;100685.66;;;19.70;61.26
79540;BME280;68991;52.122;5.406;2023-08-30T07:36:26;100682.06;;;19.70;61.45
79540;BME280;68991;52.122;5.406;2023-08-30T07:39:12;100682.06;;;19.70;61.53
79540;BME280;68991;52.122;5.406;2023-08-30T07:41:39;100676.59;;;19.70;61.53
79540;BME280;68991;52.122;5.406;2023-08-30T07:44:05;100665.69;;;19.70;61.41
79540;BME280;68991;52.122;5.406;2023-08-30T07:46:32;100669.28;;;19.70;61.38
79540;BME280;68991;52.122;5.406;2023-08-30T07:48:58;100664.69;;;19.71;61.63
79540;BME280;68991;52.122;5.406;2023-08-30T07:51:24;100655.66;;;19.70;61.47
79540;BME280;68991;52.122;5.406;2023-08-30T07:53:51;100662.84;;;19.71;61.54
79540;BME280;68991;52.122;5.406;2023-08-30T07:56:17;100643.75;;;19.71;61.89
79540;BME280;68991;52.122;5.406;2023-08-30T07:58:44;100647.47;;;19.70;61.65
79540;BME280;68991;52.122;5.406;2023-08-30T08:01:10;100649.34;;;19.70;61.57
79540;BME280;68991;52.122;5.406;2023-08-30T08:03:37;100646.59;;;19.70;61.41
79540;BME280;68991;52.122;5.406;2023-08-30T08:06:14;100643.75;;;19.71;61.57
79540;BME280;68991;52.122;5.406;2023-08-30T08:08:40;100648.50;;;19.69;61.69
79540;BME280;68991;52.122;5.406;2023-08-30T08:11:07;100639.28;;;19.70;61.51
79540;BME280;68991;52.122;5.406;2023-08-30T08:13:33;100642.88;;;19.71;61.50
79540;BME280;68991;52.122;5.406;2023-08-30T08:16:00;100635.56;;;19.71;61.44
79540;BME280;68991;52.122;5.406;2023-08-30T08:18:27;100626.38;;;19.72;61.55
79540;BME280;68991;52.122;5.406;2023-08-30T08:20:53;100622.63;;;19.73;61.49
79540;BME280;68991;52.122;5.406;2023-08-30T08:23:20;100615.31;;;19.74;61.59
79540;BME280;68991;52.122;5.406;2023-08-30T08:25:46;100612.59;;;19.74;61.56
79540;BME280;68991;52.122;5.406;2023-08-30T08:28:13;100616.19;;;19.74;61.54
79540;BME280;68991;52.122;5.406;2023-08-30T08:30:39;100618.03;;;19.74;61.61
79540;BME280;68991;52.122;5.406;2023-08-30T08:33:06;100611.72;;;19.73;61.63
79540;BME280;68991;52.122;5.406;2023-08-30T08:35:33;100620.78;;;19.74;61.11
79540;BME280;68991;52.122;5.406;2023-08-30T08:38:00;100619.78;;;19.75;61.76
79540;BME280;68991;52.122;5.406;2023-08-30T08:40:27;100619.78;;;19.75;61.60
79540;BME280;68991;52.122;5.406;2023-08-30T08:43:10;100620.66;;;19.75;61.53
79540;BME280;68991;52.122;5.406;2023-08-30T08:45:37;100616.94;;;19.76;61.69
79540;BME280;68991;52.122;5.406;2023-08-30T08:48:04;100613.34;;;19.76;61.70
79540;BME280;68991;52.122;5.406;2023-08-30T08:50:32;100611.59;;;19.75;61.76
79540;BME280;68991;52.122;5.406;2023-08-30T08:52:59;100616.94;;;19.76;61.65
79540;BME280;68991;52.122;5.406;2023-08-30T08:55:26;100617.91;;;19.75;61.74
79540;BME280;68991;52.122;5.406;2023-08-30T08:57:53;100609.75;;;19.75;61.82
79540;BME280;68991;52.122;5.406;2023-08-30T09:00:20;100604.28;;;19.75;61.85
79540;BME280;68991;52.122;5.406;2023-08-30T09:02:46;100609.75;;;19.75;61.54
79540;BME280;68991;52.122;5.406;2023-08-30T09:05:13;100611.47;;;19.76;61.83
79540;BME280;68991;52.122;5.406;2023-08-30T09:07:41;100605.16;;;19.76;61.57
79540;BME280;68991;52.122;5.406;2023-08-30T09:10:09;100599.69;;;19.76;61.62
79540;BME280;68991;52.122;5.406;2023-08-30T09:12:35;100597.84;;;19.76;61.82
79540;BME280;68991;52.122;5.406;2023-08-30T09:15:02;100595.09;;;19.76;61.79
79540;BME280;68991;52.122;5.406;2023-08-30T09:17:37;100599.69;;;19.76;61.81
79540;BME280;68991;52.122;5.406;2023-08-30T09:20:11;100600.56;;;19.76;61.73
79540;BME280;68991;52.122;5.406;2023-08-30T09:22:42;100597.84;;;19.76;61.90
79540;BME280;68991;52.122;5.406;2023-08-30T09:25:11;100591.34;;;19.77;61.65
79540;BME280;68991;52.122;5.406;2023-08-30T09:27:38;100585.88;;;19.77;61.76
79540;BME280;68991;52.122;5.406;2023-08-30T09:30:09;100588.63;;;19.77;61.82
79540;BME280;68991;52.122;5.406;2023-08-30T09:32:41;100588.63;;;19.77;61.66
79540;BME280;68991;52.122;5.406;2023-08-30T09:35:09;100589.50;;;19.78;61.78
79540;BME280;68991;52.122;5.406;2023-08-30T09:37:36;100582.16;;;19.78;61.85
79540;BME280;68991;52.122;5.406;2023-08-30T09:40:03;100591.22;;;19.79;61.86
79540;BME280;68991;52.122;5.406;2023-08-30T09:42:29;100583.91;;;19.79;61.95
79540;BME280;68991;52.122;5.406;2023-08-30T09:44:56;100580.16;;;19.80;61.83
79540;BME280;68991;52.122;5.406;2023-08-30T09:47:27;100575.56;;;19.81;61.71
79540;BME280;68991;52.122;5.406;2023-08-30T09:49:55;100572.69;;;19.82;61.93
79540;BME280;68991;52.122;5.406;2023-08-30T09:52:23;100573.56;;;19.83;61.67
79540;BME280;68991;52.122;5.406;2023-08-30T09:54:51;100566.25;;;19.83;61.62
79540;BME280;68991;52.122;5.406;2023-08-30T09:57:18;100569.81;;;19.84;61.84
79540;BME280;68991;52.122;5.406;2023-08-30T09:59:45;100569.81;;;19.84;61.79
79540;BME280;68991;52.122;5.406;2023-08-30T10:02:12;100561.78;;;19.82;61.60
79540;BME280;68991;52.122;5.406;2023-08-30T10:04:40;100563.38;;;19.85;61.67
79540;BME280;68991;52.122;5.406;2023-08-30T10:07:08;100561.50;;;19.85;61.50
79540;BME280;68991;52.122;5.406;2023-08-30T10:09:40;100570.56;;;19.86;61.85
79540;BME280;68991;52.122;5.406;2023-08-30T10:12:28;100568.69;;;19.86;61.77
79540;BME280;68991;52.122;5.406;2023-08-30T10:14:55;100576.88;;;19.86;61.82
79540;BME280;68991;52.122;5.406;2023-08-30T10:17:29;100576.72;;;19.88;61.61
79540;BME280;68991;52.122;5.406;2023-08-30T10:19:59;100572.28;;;19.87;61.67
79540;BME280;68991;52.122;5.406;2023-08-30T10:22:26;100573.00;;;19.89;61.94
79540;BME280;68991;52.122;5.406;2023-08-30T10:24:55;100570.13;;;19.91;61.86
79540;BME280;68991;52.122;5.406;2023-08-30T10:27:39;100569.84;;;19.94;61.62
79540;BME280;68991;52.122;5.406;2023-08-30T10:30:09;100572.44;;;20.05;61.45
79540;BME280;68991;52.122;5.406;2023-08-30T10:32:40;100583.63;;;20.11;61.32
79540;BME280;68991;52.122;5.406;2023-08-30T10:35:10;100570.66;;;20.23;61.03
79540;BME280;68991;52.122;5.406;2023-08-30T10:37:37;100585.75;;;20.27;61.03
79540;BME280;68991;52.122;5.406;2023-08-30T10:40:04;100582.06;;;20.28;61.06
79540;BME280;68991;52.122;5.406;2023-08-30T10:42:32;100588.97;;;20.32;61.19
79540;BME280;68991;52.122;5.406;2023-08-30T10:45:05;100573.28;;;20.44;60.77
79540;BME280;68991;52.122;5.406;2023-08-30T10:47:37;100583.03;;;20.56;60.54
79540;BME280;68991;52.122;5.406;2023-08-30T10:50:10;100583.28;;;20.62;60.48
79540;BME280;68991;52.122;5.406;2023-08-30T10:52:37;100586.47;;;20.67;60.07
79540;BME280;68991;52.122;5.406;2023-08-30T10:55:08;100591.88;;;20.77;60.15
79540;BME280;68991;52.122;5.406;2023-08-30T10:57:36;100592.88;;;20.85;59.91
79540;BME280;68991;52.122;5.406;2023-08-30T11:02:32;100596.88;;;21.01;59.32
79540;BME280;68991;52.122;5.406;2023-08-30T11:04:59;100589.78;;;21.08;59.46
79540;BME280;68991;52.122;5.406;2023-08-30T11:07:25;100596.41;;;21.05;59.17
79540;BME280;68991;52.122;5.406;2023-08-30T11:09:52;100595.84;;;21.02;59.51
79540;BME280;68991;52.122;5.406;2023-08-30T11:12:19;100595.28;;;20.98;59.20
79540;BME280;68991;52.122;5.406;2023-08-30T11:14:49;100610.81;;;20.98;59.37
79540;BME280;68991;52.122;5.406;2023-08-30T11:17:16;100607.38;;;20.96;59.31
79540;BME280;68991;52.122;5.406;2023-08-30T11:19:44;100612.16;;;20.94;59.78
79540;BME280;68991;52.122;5.406;2023-08-30T11:22:12;100613.16;;;20.93;59.51
79540;BME280;68991;52.122;5.406;2023-08-30T11:24:39;100611.41;;;20.92;59.57
79540;BME280;68991;52.122;5.406;2023-08-30T11:27:06;100614.16;;;20.92;59.39
79540;BME280;68991;52.122;5.406;2023-08-30T11:29:33;100611.41;;;20.92;59.49
79540;BME280;68991;52.122;5.406;2023-08-30T11:32:00;100613.16;;;20.93;59.64
79540;BME280;68991;52.122;5.406;2023-08-30T11:34:26;100614.16;;;20.92;59.57
79540;BME280;68991;52.122;5.406;2023-08-30T11:36:53;100608.84;;;20.90;59.69
79540;BME280;68991;52.122;5.406;2023-08-30T11:39:20;100614.31;;;20.90;59.67
79540;BME280;68991;52.122;5.406;2023-08-30T11:41:50;100610.81;;;20.98;59.21
79540;BME280;68991;52.122;5.406;2023-08-30T11:44:19;100609.75;;;21.08;59.31
79540;BME280;68991;52.122;5.406;2023-08-30T11:46:45;100607.78;;;21.10;59.24
79540;BME280;68991;52.122;5.406;2023-08-30T11:49:13;100599.25;;;21.23;58.70
79540;BME280;68991;52.122;5.406;2023-08-30T11:51:40;100597.19;;;21.34;58.75
79540;BME280;68991;52.122;5.406;2023-08-30T11:54:07;100601.47;;;21.37;58.44
79540;BME280;68991;52.122;5.406;2023-08-30T11:56:34;100600.53;;;21.28;58.64
79540;BME280;68991;52.122;5.406;2023-08-30T11:59:02;100601.97;;;21.23;58.98
79540;BME280;68991;52.122;5.406;2023-08-30T12:01:32;100606.75;;;21.21;58.74
79540;BME280;68991;52.122;5.406;2023-08-30T12:04:09;100610.19;;;21.23;58.85
79540;BME280;68991;52.122;5.406;2023-08-30T12:06:35;100600.97;;;21.24;58.50
79540;BME280;68991;52.122;5.406;2023-08-30T12:09:02;100601.53;;;21.27;58.43
79540;BME280;68991;52.122;5.406;2023-08-30T12:11:32;100605.25;;;21.36;58.62
79540;BME280;68991;52.122;5.406;2023-08-30T12:14:02;100606.94;;;21.37;58.21
79540;BME280;68991;52.122;5.406;2023-08-30T12:16:28;100598.75;;;21.37;58.31
79540;BME280;68991;52.122;5.406;2023-08-30T12:18:55;100604.94;;;21.39;58.64
79540;BME280;68991;52.122;5.406;2023-08-30T12:21:21;100602.69;;;21.52;58.20
79540;BME280;68991;52.122;5.406;2023-08-30T12:23:48;100608.97;;;21.62;58.08
79540;BME280;68991;52.122;5.406;2023-08-30T12:26:14;100619.59;;;21.65;57.64
79540;BME280;68991;52.122;5.406;2023-08-30T12:28:41;100622.81;;;21.61;57.91
79540;BME280;68991;52.122;5.406;2023-08-30T12:31:10;100614.34;;;21.54;57.77
79540;BME280;68991;52.122;5.406;2023-08-30T12:33:37;100613.78;;;21.51;58.04
79540;BME280;68991;52.122;5.406;2023-08-30T12:36:04;100623.09;;;21.58;57.75
79540;BME280;68991;52.122;5.406;2023-08-30T12:38:30;100612.72;;;21.61;57.94
79540;BME280;68991;52.122;5.406;2023-08-30T12:40:57;100612.66;;;21.71;57.46
79540;BME280;68991;52.122;5.406;2023-08-30T12:43:24;100617.94;;;21.82;57.47
79540;BME280;68991;52.122;5.406;2023-08-30T12:45:50;100620.78;;;21.90;57.28
79540;BME280;68991;52.122;5.406;2023-08-30T12:48:18;100626.47;;;21.97;56.76
79540;BME280;68991;52.122;5.406;2023-08-30T12:50:46;100620.72;;;22.00;56.85
79540;BME280;68991;52.122;5.406;2023-08-30T12:53:13;100630.19;;;22.05;56.59
79540;BME280;68991;52.122;5.406;2023-08-30T12:55:41;100635.88;;;22.12;56.39